地図

経路データ

SID SEASON NUMBER BASIN SUBBASIN NAME ISO_TIME NATURE LAT LON WMO_WIND WMO_PRES WMO_AGENCY TRACK_TYPE DIST2LAND LANDFALL IFLAG USA_AGENCY USA_ATCF_ID USA_LAT USA_LON USA_RECORD USA_STATUS USA_WIND USA_PRES USA_SSHS USA_R34_NE USA_R34_SE USA_R34_SW USA_R34_NW USA_R50_NE USA_R50_SE USA_R50_SW USA_R50_NW USA_R64_NE USA_R64_SE USA_R64_SW USA_R64_NW USA_POCI USA_ROCI USA_RMW USA_EYE TOKYO_LAT TOKYO_LON TOKYO_GRADE TOKYO_WIND TOKYO_PRES TOKYO_R50_DIR TOKYO_R50_LONG TOKYO_R50_SHORT TOKYO_R30_DIR TOKYO_R30_LONG TOKYO_R30_SHORT TOKYO_LAND CMA_LAT CMA_LON CMA_CAT CMA_WIND CMA_PRES HKO_LAT HKO_LON HKO_CAT HKO_WIND HKO_PRES NEWDELHI_LAT NEWDELHI_LON NEWDELHI_GRADE NEWDELHI_WIND NEWDELHI_PRES NEWDELHI_CI NEWDELHI_DP NEWDELHI_POCI REUNION_LAT REUNION_LON REUNION_TYPE REUNION_WIND REUNION_PRES REUNION_TNUM REUNION_CI REUNION_RMW REUNION_R34_NE REUNION_R34_SE REUNION_R34_SW REUNION_R34_NW REUNION_R50_NE REUNION_R50_SE REUNION_R50_SW REUNION_R50_NW REUNION_R64_NE REUNION_R64_SE REUNION_R64_SW REUNION_R64_NW BOM_LAT BOM_LON BOM_TYPE BOM_WIND BOM_PRES BOM_TNUM BOM_CI BOM_RMW BOM_R34_NE BOM_R34_SE BOM_R34_SW BOM_R34_NW BOM_R50_NE BOM_R50_SE BOM_R50_SW BOM_R50_NW BOM_R64_NE BOM_R64_SE BOM_R64_SW BOM_R64_NW BOM_ROCI BOM_POCI BOM_EYE BOM_POS_METHOD BOM_PRES_METHOD NADI_LAT NADI_LON NADI_CAT NADI_WIND NADI_PRES WELLINGTON_LAT WELLINGTON_LON WELLINGTON_WIND WELLINGTON_PRES DS824_LAT DS824_LON DS824_STAGE DS824_WIND DS824_PRES TD9636_LAT TD9636_LON TD9636_STAGE TD9636_WIND TD9636_PRES TD9635_LAT TD9635_LON TD9635_WIND TD9635_PRES TD9635_ROCI NEUMANN_LAT NEUMANN_LON NEUMANN_CLASS NEUMANN_WIND NEUMANN_PRES MLC_LAT MLC_LON MLC_CLASS MLC_WIND MLC_PRES USA_GUST BOM_GUST BOM_GUST_PER REUNION_GUST REUNION_GUST_PER USA_SEAHGT USA_SEARAD_NE USA_SEARAD_SE USA_SEARAD_SW USA_SEARAD_NW STORM_SPEED STORM_DIR
1918238N24084 1918 52 NI BB NOT_NAMED 1918-08-26 00:00:00 TS 23.8000 84.1000 main 0 0 _________O____ -1 23.8000 84.1000 TC 30 3 270
1918238N24084 1918 52 NI BB NOT_NAMED 1918-08-26 03:00:00 TS 23.8000 83.9417 main 0 0 _________PO___ -1 23.8000 83.8625 TC 30 23.8000 84.1000 1 4 270
1918238N24084 1918 52 NI BB NOT_NAMED 1918-08-26 06:00:00 TS 23.8002 83.6838 main 0 0 _________OP___ -1 23.8000 83.6000 TC 30 23.8006 83.8094 1 5 270
1918238N24084 1918 52 NI BB NOT_NAMED 1918-08-26 09:00:00 TS 23.8003 83.3964 main 0 0 _________PP___ -1 23.8000 83.3000 TC 30 23.8007 83.5250 1 5 270
1918238N24084 1918 52 NI BB NOT_NAMED 1918-08-26 12:00:00 TS 23.8002 83.1266 main 0 0 _________OP___ -1 23.8000 83.0000 TC 30 23.8005 83.2531 1 5 270
1918238N24084 1918 52 NI BB NOT_NAMED 1918-08-26 15:00:00 TS 23.8000 82.8712 main 0 0 _________PO___ -1 23.7999 82.7425 TC 30 23.8000 83.0000 1 5 270
1918238N24084 1918 52 NI BB NOT_NAMED 1918-08-26 18:00:00 TS 23.7997 82.6336 main 0 0 _________OP___ -1 23.8000 82.5000 TC 30 23.7995 82.7672 1 4 270
1918238N24084 1918 52 NI BB NOT_NAMED 1918-08-26 21:00:00 TS 23.7996 82.3975 main 0 0 _________PP___ -1 23.7999 82.2575 TC 30 23.7992 82.5375 1 4 270
1918238N24084 1918 52 NI BB NOT_NAMED 1918-08-27 00:00:00 TS 23.7997 82.1445 main 0 0 _________OP___ -1 23.8000 82.0000 TC 30 23.7994 82.2890 1 5 270
1918238N24084 1918 52 NI BB NOT_NAMED 1918-08-27 03:00:00 TS 23.7999 81.8687 main 0 0 _________PO___ -1 23.7998 81.7375 TC 30 23.8000 82.0000 1 6 270
1918238N24084 1918 52 NI BB NOT_NAMED 1918-08-27 06:00:00 TS 23.8001 81.5216 main 0 0 _________OP___ -1 23.8000 81.4000 TC 30 23.8002 81.6431 1 7 270
1918238N24084 1918 52 NI BB NOT_NAMED 1918-08-27 09:00:00 TS 23.8002 81.0800 main 0 0 _________PP___ -1 23.8002 80.9150 TC 30 23.8002 81.2450 1 8 270
1918238N24084 1918 52 NI BB NOT_NAMED 1918-08-27 12:00:00 TS 23.8000 80.6122 main 0 0 _________OP___ -1 23.8000 80.4000 TC 30 23.8001 80.8243 1 8 270
1918238N24084 1918 52 NI BB NOT_NAMED 1918-08-27 15:00:00 TS 23.7999 80.1925 main 0 0 _________PO___ -1 23.7998 79.9850 TC 30 23.8000 80.4000 1 7 269
1918238N24084 1918 52 NI BB NOT_NAMED 1918-08-27 18:00:00 TS 23.7875 79.8078 main 0 0 _________OP___ -1 23.8000 79.6000 TC 30 23.7750 80.0156 1 7 268
1918238N24084 1918 52 NI BB NOT_NAMED 1918-08-27 21:00:00 TS 23.7694 79.4219 main 0 0 _________PP___ -1 23.7848 79.2148 TC 30 23.7541 79.6290 1 7 269
1918238N24084 1918 52 NI BB NOT_NAMED 1918-08-28 00:00:00 TS 23.7781 79.0140 main 0 0 _________OP___ -1 23.8000 78.8000 TC 30 23.7562 79.2279 1 8 275
1918238N24084 1918 52 NI BB NOT_NAMED 1918-08-28 03:00:00 TS 23.8350 78.5575 main 0 0 _________PO___ -1 23.8700 78.3149 TC 30 23.8000 78.8000 1 9 282
1918238N24084 1918 52 NI BB NOT_NAMED 1918-08-28 06:00:00 TS 23.9555 78.0607 main 0 0 _________OP___ -1 24.0000 77.8000 TC 30 23.9111 78.3213 1 10 288
1918238N24084 1918 52 NI AS NOT_NAMED 1918-08-28 09:00:00 TS 24.1276 77.5543 main 0 0 _________PP___ -1 24.1924 77.2926 TC 30 24.0627 77.8159 1 10 291
1918238N24084 1918 52 NI AS NOT_NAMED 1918-08-28 12:00:00 TS 24.3165 77.0512 main 0 0 _________OP___ -1 24.4000 76.8000 TC 30 24.2329 77.3024 1 10 292
1918238N24084 1918 52 NI AS NOT_NAMED 1918-08-28 15:00:00 TS 24.4824 76.5712 main 0 0 _________PO___ -1 24.5648 76.3424 TC 30 24.4000 76.8000 1 9 290
1918238N24084 1918 52 NI AS NOT_NAMED 1918-08-28 18:00:00 TS 24.6126 76.1420 main 0 0 _________OP___ -1 24.7000 75.9000 TC 30 24.5471 76.3235 1 8 287
1918238N24084 1918 52 NI AS NOT_NAMED 1918-08-28 21:00:00 TS 24.7284 75.7030 main 0 0 _________PP___ -1 24.8078 75.4526 TC 30 24.6755 75.8699 1 8 285
1918238N24084 1918 52 NI AS NOT_NAMED 1918-08-29 00:00:00 TS 24.8275 75.2876 main 0 0 _________OP___ -1 24.9000 75.0000 TC 30 24.7912 75.4314 1 7 285
1918238N24084 1918 52 NI AS NOT_NAMED 1918-08-29 03:00:00 NR 24.9000 75.0000 main 0 __________O___ -1 TC 24.9000 75.0000 1 5 286

IBTrACS Databaseについて

本データベースは、米国NOAAが公開する1842年以降の世界の熱帯低気圧のベストトラックデータアーカイブInternational Best Track Archive for Climate Stewardship (IBTrACS)を、ウェブで閲覧しやすい形式に変換したものです。

最終更新日:2021-12-08